sensor_id;sensor_type;location;lat;lon;timestamp;temperature;humidity
1351;DHT22;669;50.206;9.998;2023-07-28T03:50:17;15.80;99.90
1351;DHT22;669;50.206;9.998;2023-07-28T03:52:45;15.80;99.90
1351;DHT22;669;50.206;9.998;2023-07-28T03:55:13;15.80;99.90
1351;DHT22;669;50.206;9.998;2023-07-28T03:57:41;15.80;99.90
1351;DHT22;669;50.206;9.998;2023-07-28T04:00:10;15.80;99.90
1351;DHT22;669;50.206;9.998;2023-07-28T04:02:38;15.80;99.90
1351;DHT22;669;50.206;9.998;2023-07-28T04:05:06;15.80;99.90
1351;DHT22;669;50.206;9.998;2023-07-28T04:07:36;15.80;99.90
1351;DHT22;669;50.206;9.998;2023-07-28T04:10:05;15.80;99.90
1351;DHT22;669;50.206;9.998;2023-07-28T04:12:33;15.80;99.90
1351;DHT22;669;50.206;9.998;2023-07-28T04:15:01;15.80;99.90
1351;DHT22;669;50.206;9.998;2023-07-28T04:17:29;15.80;99.90
1351;DHT22;669;50.206;9.998;2023-07-28T04:19:57;15.80;99.90
1351;DHT22;669;50.206;9.998;2023-07-28T04:22:25;15.80;99.90
1351;DHT22;669;50.206;9.998;2023-07-28T04:24:54;15.80;99.90
1351;DHT22;669;50.206;9.998;2023-07-28T04:27:22;15.90;99.90
1351;DHT22;669;50.206;9.998;2023-07-28T04:29:50;15.90;99.90
1351;DHT22;669;50.206;9.998;2023-07-28T04:32:18;15.90;99.90
1351;DHT22;669;50.206;9.998;2023-07-28T04:34:46;15.90;99.90
1351;DHT22;669;50.206;9.998;2023-07-28T04:37:14;15.90;99.90
1351;DHT22;669;50.206;9.998;2023-07-28T04:39:42;15.90;99.90
1351;DHT22;669;50.206;9.998;2023-07-28T04:42:12;15.90;99.90
1351;DHT22;669;50.206;9.998;2023-07-28T04:44:40;15.90;99.90
1351;DHT22;669;50.206;9.998;2023-07-28T04:47:08;16.00;99.90
1351;DHT22;669;50.206;9.998;2023-07-28T04:49:36;15.90;99.90
1351;DHT22;669;50.206;9.998;2023-07-28T04:52:04;15.90;99.90
1351;DHT22;669;50.206;9.998;2023-07-28T04:54:33;16.00;99.90
1351;DHT22;669;50.206;9.998;2023-07-28T04:57:00;16.00;99.90
1351;DHT22;669;50.206;9.998;2023-07-28T04:59:30;16.00;99.90
1351;DHT22;669;50.206;9.998;2023-07-28T05:01:58;16.00;99.90
1351;DHT22;669;50.206;9.998;2023-07-28T05:04:26;16.00;99.90
1351;DHT22;669;50.206;9.998;2023-07-28T05:06:54;16.10;99.90
1351;DHT22;669;50.206;9.998;2023-07-28T05:09:22;16.10;99.90
1351;DHT22;669;50.206;9.998;2023-07-28T05:11:50;16.10;99.90
1351;DHT22;669;50.206;9.998;2023-07-28T05:14:18;16.10;99.90
1351;DHT22;669;50.206;9.998;2023-07-28T05:16:47;16.20;99.90
1351;DHT22;669;50.206;9.998;2023-07-28T05:19:15;16.20;99.90
1351;DHT22;669;50.206;9.998;2023-07-28T05:21:43;16.20;99.90
1351;DHT22;669;50.206;9.998;2023-07-28T05:24:11;16.30;99.90
1351;DHT22;669;50.206;9.998;2023-07-28T05:26:39;16.30;99.90
1351;DHT22;669;50.206;9.998;2023-07-28T05:29:07;16.30;99.90
1351;DHT22;669;50.206;9.998;2023-07-28T05:31:35;16.30;99.90
1351;DHT22;669;50.206;9.998;2023-07-28T05:34:05;16.40;99.90
1351;DHT22;669;50.206;9.998;2023-07-28T05:36:33;16.40;99.90
1351;DHT22;669;50.206;9.998;2023-07-28T05:39:01;16.40;99.90
1351;DHT22;669;50.206;9.998;2023-07-28T05:41:29;16.40;99.90
1351;DHT22;669;50.206;9.998;2023-07-28T05:43:57;16.40;99.90
1351;DHT22;669;50.206;9.998;2023-07-28T05:46:25;16.40;99.90
1351;DHT22;669;50.206;9.998;2023-07-28T05:48:54;16.40;99.90
1351;DHT22;669;50.206;9.998;2023-07-28T05:51:24;16.50;99.90
1351;DHT22;669;50.206;9.998;2023-07-28T05:53:52;16.50;99.90
1351;DHT22;669;50.206;9.998;2023-07-28T05:56:20;16.50;99.90
1351;DHT22;669;50.206;9.998;2023-07-28T05:58:48;16.50;99.90
1351;DHT22;669;50.206;9.998;2023-07-28T06:01:17;16.50;99.90
1351;DHT22;669;50.206;9.998;2023-07-28T06:03:45;16.50;99.90
1351;DHT22;669;50.206;9.998;2023-07-28T06:06:13;16.50;99.90
1351;DHT22;669;50.206;9.998;2023-07-28T06:08:43;16.50;99.90
1351;DHT22;669;50.206;9.998;2023-07-28T06:11:10;16.60;99.90
1351;DHT22;669;50.206;9.998;2023-07-28T06:13:38;16.60;99.90
1351;DHT22;669;50.206;9.998;2023-07-28T06:16:06;16.70;99.90
1351;DHT22;669;50.206;9.998;2023-07-28T06:18:34;16.70;99.90
1351;DHT22;669;50.206;9.998;2023-07-28T06:21:02;16.70;99.90
1351;DHT22;669;50.206;9.998;2023-07-28T06:23:31;16.70;99.90
1351;DHT22;669;50.206;9.998;2023-07-28T06:26:00;16.70;99.90
1351;DHT22;669;50.206;9.998;2023-07-28T06:28:28;16.70;99.90
1351;DHT22;669;50.206;9.998;2023-07-28T06:30:57;16.70;99.90
1351;DHT22;669;50.206;9.998;2023-07-28T06:33:27;16.70;99.90
1351;DHT22;669;50.206;9.998;2023-07-28T06:35:55;16.80;99.90
1351;DHT22;669;50.206;9.998;2023-07-28T06:38:23;16.70;99.90
1351;DHT22;669;50.206;9.998;2023-07-28T06:40:52;16.80;99.90
1351;DHT22;669;50.206;9.998;2023-07-28T06:43:21;16.80;99.90
1351;DHT22;669;50.206;9.998;2023-07-28T06:45:51;16.80;99.90
1351;DHT22;669;50.206;9.998;2023-07-28T06:48:19;16.80;99.90
1351;DHT22;669;50.206;9.998;2023-07-28T06:50:47;16.80;99.90
1351;DHT22;669;50.206;9.998;2023-07-28T06:53:15;16.80;99.90
1351;DHT22;669;50.206;9.998;2023-07-28T06:55:43;16.80;99.90
1351;DHT22;669;50.206;9.998;2023-07-28T06:58:11;16.80;99.90
1351;DHT22;669;50.206;9.998;2023-07-28T07:00:41;16.90;99.90
1351;DHT22;669;50.206;9.998;2023-07-28T07:03:09;16.90;99.90
1351;DHT22;669;50.206;9.998;2023-07-28T07:05:38;17.00;99.90
1351;DHT22;669;50.206;9.998;2023-07-28T07:08:06;17.00;99.90
1351;DHT22;669;50.206;9.998;2023-07-28T07:10:35;17.00;99.90
1351;DHT22;669;50.206;9.998;2023-07-28T07:13:03;17.00;99.90
1351;DHT22;669;50.206;9.998;2023-07-28T07:15:33;17.00;99.90
1351;DHT22;669;50.206;9.998;2023-07-28T07:18:03;17.00;99.90
1351;DHT22;669;50.206;9.998;2023-07-28T07:20:34;17.10;99.90
1351;DHT22;669;50.206;9.998;2023-07-28T07:23:02;17.10;99.90
1351;DHT22;669;50.206;9.998;2023-07-28T07:25:30;17.10;99.90
1351;DHT22;669;50.206;9.998;2023-07-28T07:27:58;17.10;99.90
1351;DHT22;669;50.206;9.998;2023-07-28T07:30:26;17.10;99.90
1351;DHT22;669;50.206;9.998;2023-07-28T07:32:54;17.20;99.90
1351;DHT22;669;50.206;9.998;2023-07-28T07:35:23;17.20;99.90
1351;DHT22;669;50.206;9.998;2023-07-28T07:37:51;17.20;99.90
1351;DHT22;669;50.206;9.998;2023-07-28T07:40:19;17.30;99.90
1351;DHT22;669;50.206;9.998;2023-07-28T07:42:48;17.20;99.90
1351;DHT22;669;50.206;9.998;2023-07-28T07:45:16;17.20;99.90
1351;DHT22;669;50.206;9.998;2023-07-28T07:47:44;17.20;99.90
1351;DHT22;669;50.206;9.998;2023-07-28T07:50:12;17.20;99.90
1351;DHT22;669;50.206;9.998;2023-07-28T07:52:41;17.20;99.90
1351;DHT22;669;50.206;9.998;2023-07-28T07:55:10;17.20;99.90
1351;DHT22;669;50.206;9.998;2023-07-28T07:57:39;17.30;99.90
1351;DHT22;669;50.206;9.998;2023-07-28T08:00:08;17.30;99.90
1351;DHT22;669;50.206;9.998;2023-07-28T08:02:37;17.30;99.90
1351;DHT22;669;50.206;9.998;2023-07-28T08:05:06;17.30;99.90
1351;DHT22;669;50.206;9.998;2023-07-28T08:07:36;17.30;99.90
1351;DHT22;669;50.206;9.998;2023-07-28T08:10:07;17.30;99.90
1351;DHT22;669;50.206;9.998;2023-07-28T08:12:35;17.40;99.90
1351;DHT22;669;50.206;9.998;2023-07-28T08:15:03;17.40;99.90
1351;DHT22;669;50.206;9.998;2023-07-28T08:17:31;17.40;99.90
1351;DHT22;669;50.206;9.998;2023-07-28T08:19:59;17.40;99.90
1351;DHT22;669;50.206;9.998;2023-07-28T08:22:27;17.40;99.90
1351;DHT22;669;50.206;9.998;2023-07-28T08:24:55;17.40;99.90
1351;DHT22;669;50.206;9.998;2023-07-28T08:27:24;17.40;99.90
1351;DHT22;669;50.206;9.998;2023-07-28T08:29:52;17.40;99.90
1351;DHT22;669;50.206;9.998;2023-07-28T08:32:20;17.30;99.90
1351;DHT22;669;50.206;9.998;2023-07-28T08:34:49;17.30;99.90
1351;DHT22;669;50.206;9.998;2023-07-28T08:37:17;17.30;99.90
1351;DHT22;669;50.206;9.998;2023-07-28T08:39:45;17.30;99.90
1351;DHT22;669;50.206;9.998;2023-07-28T08:42:13;17.40;99.90
1351;DHT22;669;50.206;9.998;2023-07-28T08:44:44;17.40;99.90
1351;DHT22;669;50.206;9.998;2023-07-28T08:47:14;17.50;99.90
1351;DHT22;669;50.206;9.998;2023-07-28T08:49:42;17.50;99.90
1351;DHT22;669;50.206;9.998;2023-07-28T08:52:10;17.60;99.90
1351;DHT22;669;50.206;9.998;2023-07-28T08:54:39;17.60;99.90
1351;DHT22;669;50.206;9.998;2023-07-28T08:57:08;17.70;99.90
1351;DHT22;669;50.206;9.998;2023-07-28T08:59:37;17.70;99.90
1351;DHT22;669;50.206;9.998;2023-07-28T09:02:10;17.80;99.90
1351;DHT22;669;50.206;9.998;2023-07-28T09:04:38;17.80;99.90
1351;DHT22;669;50.206;9.998;2023-07-28T09:07:06;17.90;99.90
1351;DHT22;669;50.206;9.998;2023-07-28T09:09:34;17.90;99.90
1351;DHT22;669;50.206;9.998;2023-07-28T09:12:04;18.00;99.90
1351;DHT22;669;50.206;9.998;2023-07-28T09:14:35;18.10;99.90
1351;DHT22;669;50.206;9.998;2023-07-28T09:17:08;18.20;99.90
1351;DHT22;669;50.206;9.998;2023-07-28T09:19:50;18.40;99.90
1351;DHT22;669;50.206;9.998;2023-07-28T09:22:19;18.40;99.90
1351;DHT22;669;50.206;9.998;2023-07-28T09:24:48;18.60;99.90
1351;DHT22;669;50.206;9.998;2023-07-28T09:27:20;18.70;99.90
1351;DHT22;669;50.206;9.998;2023-07-28T09:29:49;18.70;99.90
1351;DHT22;669;50.206;9.998;2023-07-28T09:32:27;18.70;99.90
1351;DHT22;669;50.206;9.998;2023-07-28T09:35:10;18.70;99.90
1351;DHT22;669;50.206;9.998;2023-07-28T09:37:41;18.60;99.90
1351;DHT22;669;50.206;9.998;2023-07-28T09:40:11;18.50;99.90
1351;DHT22;669;50.206;9.998;2023-07-28T09:42:40;18.50;99.90
1351;DHT22;669;50.206;9.998;2023-07-28T09:45:09;18.50;99.90
1351;DHT22;669;50.206;9.998;2023-07-28T09:47:58;18.50;99.90
1351;DHT22;669;50.206;9.998;2023-07-28T09:50:29;18.60;99.90
1351;DHT22;669;50.206;9.998;2023-07-28T09:53:02;18.70;99.90
1351;DHT22;669;50.206;9.998;2023-07-28T09:55:31;18.70;99.90
1351;DHT22;669;50.206;9.998;2023-07-28T09:58:04;18.60;99.90
1351;DHT22;669;50.206;9.998;2023-07-28T10:00:33;18.50;99.90
1351;DHT22;669;50.206;9.998;2023-07-28T10:03:02;18.50;99.90
1351;DHT22;669;50.206;9.998;2023-07-28T10:05:33;18.50;99.90
1351;DHT22;669;50.206;9.998;2023-07-28T10:08:02;18.40;99.90
1351;DHT22;669;50.206;9.998;2023-07-28T10:10:31;18.40;99.90
1351;DHT22;669;50.206;9.998;2023-07-28T10:13:00;18.50;99.90
1351;DHT22;669;50.206;9.998;2023-07-28T10:15:30;18.50;99.90
1351;DHT22;669;50.206;9.998;2023-07-28T10:17:59;18.50;99.90
1351;DHT22;669;50.206;9.998;2023-07-28T10:20:33;18.70;99.90
1351;DHT22;669;50.206;9.998;2023-07-28T10:23:03;18.90;99.90
1351;DHT22;669;50.206;9.998;2023-07-28T10:25:36;19.20;99.90
1351;DHT22;669;50.206;9.998;2023-07-28T10:28:05;19.50;99.90
1351;DHT22;669;50.206;9.998;2023-07-28T10:30:50;19.70;99.90
1351;DHT22;669;50.206;9.998;2023-07-28T10:33:27;19.60;99.90
1351;DHT22;669;50.206;9.998;2023-07-28T10:35:57;19.50;99.90
1351;DHT22;669;50.206;9.998;2023-07-28T10:38:30;19.30;99.90
1351;DHT22;669;50.206;9.998;2023-07-28T10:41:10;19.20;99.90
1351;DHT22;669;50.206;9.998;2023-07-28T10:43:39;19.00;99.90
1351;DHT22;669;50.206;9.998;2023-07-28T10:46:09;18.80;99.90
1351;DHT22;669;50.206;9.998;2023-07-28T10:48:41;18.50;99.90
1351;DHT22;669;50.206;9.998;2023-07-28T10:51:11;18.30;99.90
1351;DHT22;669;50.206;9.998;2023-07-28T10:53:39;18.20;99.90
1351;DHT22;669;50.206;9.998;2023-07-28T10:56:07;18.20;99.90
1351;DHT22;669;50.206;9.998;2023-07-28T10:58:37;18.20;99.90
1351;DHT22;669;50.206;9.998;2023-07-28T11:01:05;18.40;99.90
1351;DHT22;669;50.206;9.998;2023-07-28T11:03:34;18.60;99.90
1351;DHT22;669;50.206;9.998;2023-07-28T11:06:03;18.90;99.90
1351;DHT22;669;50.206;9.998;2023-07-28T11:08:35;19.20;99.90
1351;DHT22;669;50.206;9.998;2023-07-28T11:11:04;19.20;99.90
1351;DHT22;669;50.206;9.998;2023-07-28T11:13:33;19.20;99.90
1351;DHT22;669;50.206;9.998;2023-07-28T11:16:07;19.30;99.90
1351;DHT22;669;50.206;9.998;2023-07-28T11:18:37;19.40;99.90
1351;DHT22;669;50.206;9.998;2023-07-28T11:21:05;19.60;99.90
1351;DHT22;669;50.206;9.998;2023-07-28T11:23:35;19.80;99.90
1351;DHT22;669;50.206;9.998;2023-07-28T11:26:02;19.80;99.90
1351;DHT22;669;50.206;9.998;2023-07-28T11:28:34;19.90;99.90
1351;DHT22;669;50.206;9.998;2023-07-28T11:31:02;20.10;99.90
1351;DHT22;669;50.206;9.998;2023-07-28T11:33:31;20.30;99.90
1351;DHT22;669;50.206;9.998;2023-07-28T11:35:59;20.40;99.90
1351;DHT22;669;50.206;9.998;2023-07-28T11:38:28;20.20;99.90
1351;DHT22;669;50.206;9.998;2023-07-28T11:40:59;20.30;99.90
1351;DHT22;669;50.206;9.998;2023-07-28T11:43:27;20.40;99.90
1351;DHT22;669;50.206;9.998;2023-07-28T11:45:56;20.40;99.70
1351;DHT22;669;50.206;9.998;2023-07-28T11:48:29;20.50;99.90
1351;DHT22;669;50.206;9.998;2023-07-28T11:50:58;20.30;99.90
1351;DHT22;669;50.206;9.998;2023-07-28T11:53:32;20.20;99.90
1351;DHT22;669;50.206;9.998;2023-07-28T11:56:02;20.20;99.90
1351;DHT22;669;50.206;9.998;2023-07-28T11:58:31;20.40;99.90
1351;DHT22;669;50.206;9.998;2023-07-28T12:00:59;20.40;99.90
1351;DHT22;669;50.206;9.998;2023-07-28T12:03:35;20.60;98.70
1351;DHT22;669;50.206;9.998;2023-07-28T12:06:05;20.70;99.00
1351;DHT22;669;50.206;9.998;2023-07-28T12:08:39;20.80;95.50
1351;DHT22;669;50.206;9.998;2023-07-28T12:11:14;20.50;97.90
1351;DHT22;669;50.206;9.998;2023-07-28T12:14:03;20.40;98.80
1351;DHT22;669;50.206;9.998;2023-07-28T12:16:39;20.20;99.90
1351;DHT22;669;50.206;9.998;2023-07-28T12:19:11;20.20;99.70
1351;DHT22;669;50.206;9.998;2023-07-28T12:21:39;20.30;99.90
1351;DHT22;669;50.206;9.998;2023-07-28T12:24:08;20.70;99.90
1351;DHT22;669;50.206;9.998;2023-07-28T12:26:37;21.00;99.20
1351;DHT22;669;50.206;9.998;2023-07-28T12:29:06;21.10;98.60
1351;DHT22;669;50.206;9.998;2023-07-28T12:31:38;20.90;98.90
1351;DHT22;669;50.206;9.998;2023-07-28T12:34:09;20.90;95.00
1351;DHT22;669;50.206;9.998;2023-07-28T12:36:50;20.80;97.40
1351;DHT22;669;50.206;9.998;2023-07-28T12:39:20;20.90;99.90
1351;DHT22;669;50.206;9.998;2023-07-28T12:41:53;21.10;99.10
1351;DHT22;669;50.206;9.998;2023-07-28T12:44:23;21.20;99.90
1351;DHT22;669;50.206;9.998;2023-07-28T12:46:54;21.00;99.30
1351;DHT22;669;50.206;9.998;2023-07-28T12:49:22;20.80;95.60
1351;DHT22;669;50.206;9.998;2023-07-28T12:51:50;20.60;96.70
1351;DHT22;669;50.206;9.998;2023-07-28T12:54:21;20.70;97.00
1351;DHT22;669;50.206;9.998;2023-07-28T12:56:49;20.70;99.70
1351;DHT22;669;50.206;9.998;2023-07-28T12:59:38;20.50;98.60
1351;DHT22;669;50.206;9.998;2023-07-28T13:02:09;20.40;98.20
1351;DHT22;669;50.206;9.998;2023-07-28T13:04:37;20.30;99.20
1351;DHT22;669;50.206;9.998;2023-07-28T13:07:05;19.90;99.90
1351;DHT22;669;50.206;9.998;2023-07-28T13:09:36;19.60;99.90
1351;DHT22;669;50.206;9.998;2023-07-28T13:12:08;19.60;99.90
1351;DHT22;669;50.206;9.998;2023-07-28T13:14:40;19.90;99.90
1351;DHT22;669;50.206;9.998;2023-07-28T13:17:08;20.30;99.90
1351;DHT22;669;50.206;9.998;2023-07-28T13:19:38;20.40;99.90
1351;DHT22;669;50.206;9.998;2023-07-28T13:22:06;20.40;99.90
1351;DHT22;669;50.206;9.998;2023-07-28T13:24:37;20.50;99.90
1351;DHT22;669;50.206;9.998;2023-07-28T13:27:05;20.60;99.30
1351;DHT22;669;50.206;9.998;2023-07-28T13:29:33;20.70;99.00
1351;DHT22;669;50.206;9.998;2023-07-28T13:32:03;20.50;99.90
1351;DHT22;669;50.206;9.998;2023-07-28T13:34:31;20.40;99.90
1351;DHT22;669;50.206;9.998;2023-07-28T13:36:59;20.40;99.90
1351;DHT22;669;50.206;9.998;2023-07-28T13:39:27;20.40;99.90
1351;DHT22;669;50.206;9.998;2023-07-28T13:41:55;20.30;99.90
1351;DHT22;669;50.206;9.998;2023-07-28T13:44:23;20.40;99.90
1351;DHT22;669;50.206;9.998;2023-07-28T13:46:57;20.80;97.30
1351;DHT22;669;50.206;9.998;2023-07-28T13:49:27;21.30;96.90
1351;DHT22;669;50.206;9.998;2023-07-28T13:51:55;21.70;97.50
1351;DHT22;669;50.206;9.998;2023-07-28T13:54:26;22.40;90.30
1351;DHT22;669;50.206;9.998;2023-07-28T13:56:54;23.00;81.90
1351;DHT22;669;50.206;9.998;2023-07-28T13:59:25;23.30;77.30
1351;DHT22;669;50.206;9.998;2023-07-28T14:01:53;23.30;73.30
1351;DHT22;669;50.206;9.998;2023-07-28T14:04:22;22.90;77.40
1351;DHT22;669;50.206;9.998;2023-07-28T14:06:51;22.60;79.70
1351;DHT22;669;50.206;9.998;2023-07-28T14:09:19;22.50;83.30
1351;DHT22;669;50.206;9.998;2023-07-28T14:11:47;22.40;86.10
1351;DHT22;669;50.206;9.998;2023-07-28T14:14:15;22.70;82.00
1351;DHT22;669;50.206;9.998;2023-07-28T14:16:43;22.80;81.70
1351;DHT22;669;50.206;9.998;2023-07-28T14:19:11;22.90;75.00
1351;DHT22;669;50.206;9.998;2023-07-28T14:21:39;22.70;80.10
1351;DHT22;669;50.206;9.998;2023-07-28T14:24:09;22.40;84.20
1351;DHT22;669;50.206;9.998;2023-07-28T14:26:38;22.30;83.10
1351;DHT22;669;50.206;9.998;2023-07-28T14:29:05;22.10;85.90
1351;DHT22;669;50.206;9.998;2023-07-28T14:31:34;21.90;86.40
1351;DHT22;669;50.206;9.998;2023-07-28T14:34:02;21.80;87.10
1351;DHT22;669;50.206;9.998;2023-07-28T14:36:30;21.70;89.90
1351;DHT22;669;50.206;9.998;2023-07-28T14:39:01;21.60;90.40
1351;DHT22;669;50.206;9.998;2023-07-28T14:41:30;21.70;90.10
1351;DHT22;669;50.206;9.998;2023-07-28T14:43:58;21.60;89.70
1351;DHT22;669;50.206;9.998;2023-07-28T14:46:26;21.70;89.80
1351;DHT22;669;50.206;9.998;2023-07-28T14:48:55;21.70;90.30
1351;DHT22;669;50.206;9.998;2023-07-28T14:51:23;21.70;90.10
1351;DHT22;669;50.206;9.998;2023-07-28T14:53:51;21.70;91.50
1351;DHT22;669;50.206;9.998;2023-07-28T14:56:20;21.70;90.10
1351;DHT22;669;50.206;9.998;2023-07-28T14:58:52;21.70;89.00
1351;DHT22;669;50.206;9.998;2023-07-28T15:01:21;21.70;87.70
1351;DHT22;669;50.206;9.998;2023-07-28T15:03:49;21.60;90.00
1351;DHT22;669;50.206;9.998;2023-07-28T15:06:17;21.60;90.30
1351;DHT22;669;50.206;9.998;2023-07-28T15:08:45;21.50;91.00
1351;DHT22;669;50.206;9.998;2023-07-28T15:11:14;21.50;90.50
1351;DHT22;669;50.206;9.998;2023-07-28T15:13:44;21.40;91.70
1351;DHT22;669;50.206;9.998;2023-07-28T15:16:14;21.30;90.90
1351;DHT22;669;50.206;9.998;2023-07-28T15:18:42;21.40;91.30
1351;DHT22;669;50.206;9.998;2023-07-28T15:21:11;21.40;90.90
1351;DHT22;669;50.206;9.998;2023-07-28T15:23:39;21.40;91.10
1351;DHT22;669;50.206;9.998;2023-07-28T15:26:07;21.50;90.70
1351;DHT22;669;50.206;9.998;2023-07-28T15:28:35;21.50;91.00
1351;DHT22;669;50.206;9.998;2023-07-28T15:31:04;21.50;91.30
1351;DHT22;669;50.206;9.998;2023-07-28T15:33:33;21.50;91.70
1351;DHT22;669;50.206;9.998;2023-07-28T15:36:01;21.50;91.70
1351;DHT22;669;50.206;9.998;2023-07-28T15:38:29;21.60;91.10
1351;DHT22;669;50.206;9.998;2023-07-28T15:40:57;21.50;91.60
1351;DHT22;669;50.206;9.998;2023-07-28T15:43:25;21.50;91.80
1351;DHT22;669;50.206;9.998;2023-07-28T15:45:53;21.50;92.10
1351;DHT22;669;50.206;9.998;2023-07-28T15:48:22;21.40;92.10
1351;DHT22;669;50.206;9.998;2023-07-28T15:50:51;21.30;92.80
1351;DHT22;669;50.206;9.998;2023-07-28T15:53:19;21.20;92.90
1351;DHT22;669;50.206;9.998;2023-07-28T15:55:47;21.20;92.00
1351;DHT22;669;50.206;9.998;2023-07-28T15:58:15;21.20;91.20
1351;DHT22;669;50.206;9.998;2023-07-28T16:00:43;21.20;91.40
1351;DHT22;669;50.206;9.998;2023-07-28T16:03:12;21.20;91.60
1351;DHT22;669;50.206;9.998;2023-07-28T16:05:40;21.20;91.20
1351;DHT22;669;50.206;9.998;2023-07-28T16:08:10;21.20;90.90
1351;DHT22;669;50.206;9.998;2023-07-28T16:10:38;21.20;91.80
1351;DHT22;669;50.206;9.998;2023-07-28T16:13:06;21.20;91.70
1351;DHT22;669;50.206;9.998;2023-07-28T16:15:34;21.20;91.20
1351;DHT22;669;50.206;9.998;2023-07-28T16:18:02;21.30;91.20
1351;DHT22;669;50.206;9.998;2023-07-28T16:20:30;21.30;91.10
1351;DHT22;669;50.206;9.998;2023-07-28T16:22:58;21.30;91.10
1351;DHT22;669;50.206;9.998;2023-07-28T16:25:28;21.20;91.80
1351;DHT22;669;50.206;9.998;2023-07-28T16:27:56;21.20;91.50
1351;DHT22;669;50.206;9.998;2023-07-28T16:30:24;21.20;89.70
1351;DHT22;669;50.206;9.998;2023-07-28T16:32:52;21.30;90.50
1351;DHT22;669;50.206;9.998;2023-07-28T16:35:20;21.20;91.00
1351;DHT22;669;50.206;9.998;2023-07-28T16:37:48;21.10;91.20
1351;DHT22;669;50.206;9.998;2023-07-28T16:40:16;21.10;91.80
1351;DHT22;669;50.206;9.998;2023-07-28T16:42:45;21.00;92.30
1351;DHT22;669;50.206;9.998;2023-07-28T16:45:14;21.00;92.30
1351;DHT22;669;50.206;9.998;2023-07-28T16:47:41;20.90;93.40
1351;DHT22;669;50.206;9.998;2023-07-28T16:50:09;20.80;94.60
1351;DHT22;669;50.206;9.998;2023-07-28T16:52:37;20.80;95.70
1351;DHT22;669;50.206;9.998;2023-07-28T16:55:06;20.70;95.80
1351;DHT22;669;50.206;9.998;2023-07-28T16:57:34;20.60;96.20
1351;DHT22;669;50.206;9.998;2023-07-28T17:00:05;20.60;96.80
1351;DHT22;669;50.206;9.998;2023-07-28T17:02:33;20.60;97.30
1351;DHT22;669;50.206;9.998;2023-07-28T17:05:01;20.50;95.90
1351;DHT22;669;50.206;9.998;2023-07-28T17:07:29;20.50;96.90
1351;DHT22;669;50.206;9.998;2023-07-28T17:09:57;20.50;98.70
1351;DHT22;669;50.206;9.998;2023-07-28T17:12:25;20.20;99.90
1351;DHT22;669;50.206;9.998;2023-07-28T17:14:53;19.90;99.90
1351;DHT22;669;50.206;9.998;2023-07-28T17:17:22;19.70;99.90
1351;DHT22;669;50.206;9.998;2023-07-28T17:19:50;19.50;99.90
1351;DHT22;669;50.206;9.998;2023-07-28T17:22:18;19.30;99.90
1351;DHT22;669;50.206;9.998;2023-07-28T17:24:46;19.30;99.90
1351;DHT22;669;50.206;9.998;2023-07-28T17:27:17;19.20;99.90
1351;DHT22;669;50.206;9.998;2023-07-28T17:29:45;19.10;99.90
1351;DHT22;669;50.206;9.998;2023-07-28T17:32:13;19.10;99.90
1351;DHT22;669;50.206;9.998;2023-07-28T17:34:42;19.00;99.90
1351;DHT22;669;50.206;9.998;2023-07-28T17:37:10;19.00;99.90
1351;DHT22;669;50.206;9.998;2023-07-28T17:39:38;19.00;99.90
1351;DHT22;669;50.206;9.998;2023-07-28T17:42:06;19.00;99.90
1351;DHT22;669;50.206;9.998;2023-07-28T17:44:34;19.00;99.90
1351;DHT22;669;50.206;9.998;2023-07-28T17:47:02;18.90;99.90
1351;DHT22;669;50.206;9.998;2023-07-28T17:49:30;18.90;99.90
1351;DHT22;669;50.206;9.998;2023-07-28T17:51:59;18.90;99.90
1351;DHT22;669;50.206;9.998;2023-07-28T17:54:27;18.90;99.90
1351;DHT22;669;50.206;9.998;2023-07-28T17:56:55;18.90;99.90
1351;DHT22;669;50.206;9.998;2023-07-28T17:59:23;18.80;99.90
1351;DHT22;669;50.206;9.998;2023-07-28T18:01:51;18.80;99.90
1351;DHT22;669;50.206;9.998;2023-07-28T18:04:19;18.80;99.90
1351;DHT22;669;50.206;9.998;2023-07-28T18:06:47;18.80;99.90
1351;DHT22;669;50.206;9.998;2023-07-28T18:09:17;18.80;99.90
1351;DHT22;669;50.206;9.998;2023-07-28T18:11:45;18.70;99.90
1351;DHT22;669;50.206;9.998;2023-07-28T18:14:13;18.70;99.90
1351;DHT22;669;50.206;9.998;2023-07-28T18:16:41;18.70;99.90
1351;DHT22;669;50.206;9.998;2023-07-28T18:19:09;18.70;99.90
1351;DHT22;669;50.206;9.998;2023-07-28T18:21:37;18.70;99.90
1351;DHT22;669;50.206;9.998;2023-07-28T18:24:05;18.70;99.90
1351;DHT22;669;50.206;9.998;2023-07-28T18:26:34;18.70;99.90
1351;DHT22;669;50.206;9.998;2023-07-28T18:29:02;18.70;99.90
1351;DHT22;669;50.206;9.998;2023-07-28T18:31:30;18.70;99.90
1351;DHT22;669;50.206;9.998;2023-07-28T18:33:58;18.60;99.90
1351;DHT22;669;50.206;9.998;2023-07-28T18:36:26;18.60;99.90
1351;DHT22;669;50.206;9.998;2023-07-28T18:38:55;18.60;99.90
1351;DHT22;669;50.206;9.998;2023-07-28T18:41:23;18.60;99.90
1351;DHT22;669;50.206;9.998;2023-07-28T18:43:52;18.60;99.90
1351;DHT22;669;50.206;9.998;2023-07-28T18:46:20;18.60;99.90
1351;DHT22;669;50.206;9.998;2023-07-28T18:48:48;18.60;99.90
1351;DHT22;669;50.206;9.998;2023-07-28T18:51:16;18.60;99.90
1351;DHT22;669;50.206;9.998;2023-07-28T18:53:44;18.60;99.90
1351;DHT22;669;50.206;9.998;2023-07-28T18:56:12;18.50;99.90
1351;DHT22;669;50.206;9.998;2023-07-28T18:58:40;18.50;99.90
1351;DHT22;669;50.206;9.998;2023-07-28T19:01:10;18.50;99.90
1351;DHT22;669;50.206;9.998;2023-07-28T19:03:38;18.50;99.90
1351;DHT22;669;50.206;9.998;2023-07-28T19:06:06;18.50;99.90
1351;DHT22;669;50.206;9.998;2023-07-28T19:08:34;18.50;99.90
1351;DHT22;669;50.206;9.998;2023-07-28T19:11:03;18.50;99.90
1351;DHT22;669;50.206;9.998;2023-07-28T19:13:31;18.50;99.90
1351;DHT22;669;50.206;9.998;2023-07-28T19:15:59;18.50;99.90
1351;DHT22;669;50.206;9.998;2023-07-28T19:18:28;18.50;99.90
1351;DHT22;669;50.206;9.998;2023-07-28T19:20:57;18.50;99.90
1351;DHT22;669;50.206;9.998;2023-07-28T19:23:24;18.50;99.90
1351;DHT22;669;50.206;9.998;2023-07-28T19:25:53;18.50;99.90
1351;DHT22;669;50.206;9.998;2023-07-28T19:28:21;18.50;99.90
1351;DHT22;669;50.206;9.998;2023-07-28T19:30:49;18.40;99.90
1351;DHT22;669;50.206;9.998;2023-07-28T19:33:17;18.40;99.90
1351;DHT22;669;50.206;9.998;2023-07-28T19:35:46;18.40;99.90
1351;DHT22;669;50.206;9.998;2023-07-28T19:38:14;18.40;99.90
1351;DHT22;669;50.206;9.998;2023-07-28T19:40:42;18.40;99.90
1351;DHT22;669;50.206;9.998;2023-07-28T19:43:10;18.40;99.90
1351;DHT22;669;50.206;9.998;2023-07-28T19:45:38;18.40;99.90
1351;DHT22;669;50.206;9.998;2023-07-28T19:48:06;18.40;99.90
1351;DHT22;669;50.206;9.998;2023-07-28T19:50:35;18.40;99.90
1351;DHT22;669;50.206;9.998;2023-07-28T19:53:14;18.40;99.90
1351;DHT22;669;50.206;9.998;2023-07-28T19:55:42;18.40;99.90
1351;DHT22;669;50.206;9.998;2023-07-28T19:58:13;18.40;99.90
1351;DHT22;669;50.206;9.998;2023-07-28T20:00:41;18.40;99.90
1351;DHT22;669;50.206;9.998;2023-07-28T20:03:09;18.40;99.90
1351;DHT22;669;50.206;9.998;2023-07-28T20:05:37;18.40;99.90
1351;DHT22;669;50.206;9.998;2023-07-28T20:08:05;18.40;99.90
1351;DHT22;669;50.206;9.998;2023-07-28T20:10:34;18.40;99.90
1351;DHT22;669;50.206;9.998;2023-07-28T20:13:03;18.40;99.90
1351;DHT22;669;50.206;9.998;2023-07-28T20:15:30;18.40;99.90
1351;DHT22;669;50.206;9.998;2023-07-28T20:17:59;18.40;99.90